sensor_id;sensor_type;location;lat;lon;timestamp;P1;durP1;ratioP1;P2;durP2;ratioP2
57071;SDS011;42956;51.366;11.298;2023-04-12T00:00:43;3.33;;;2.38;;
57071;SDS011;42956;51.366;11.298;2023-04-12T00:03:12;3.28;;;2.58;;
57071;SDS011;42956;51.366;11.298;2023-04-12T00:05:47;4.65;;;2.78;;
57071;SDS011;42956;51.366;11.298;2023-04-12T00:08:20;5.93;;;2.95;;
57071;SDS011;42956;51.366;11.298;2023-04-12T00:10:51;5.03;;;2.58;;
57071;SDS011;42956;51.366;11.298;2023-04-12T00:13:19;5.95;;;2.92;;
57071;SDS011;42956;51.366;11.298;2023-04-12T00:15:47;9.27;;;2.67;;
57071;SDS011;42956;51.366;11.298;2023-04-12T00:18:16;5.55;;;2.92;;
57071;SDS011;42956;51.366;11.298;2023-04-12T00:20:44;4.55;;;2.58;;
57071;SDS011;42956;51.366;11.298;2023-04-12T00:23:12;3.05;;;2.75;;
57071;SDS011;42956;51.366;11.298;2023-04-12T00:25:41;5.43;;;2.70;;
57071;SDS011;42956;51.366;11.298;2023-04-12T00:28:08;3.35;;;2.55;;
57071;SDS011;42956;51.366;11.298;2023-04-12T00:30:36;6.38;;;2.70;;
57071;SDS011;42956;51.366;11.298;2023-04-12T00:33:04;7.63;;;4.32;;
57071;SDS011;42956;51.366;11.298;2023-04-12T00:35:34;6.32;;;3.42;;
57071;SDS011;42956;51.366;11.298;2023-04-12T00:38:02;8.32;;;5.70;;
57071;SDS011;42956;51.366;11.298;2023-04-12T00:40:31;9.00;;;3.33;;
57071;SDS011;42956;51.366;11.298;2023-04-12T00:42:59;4.85;;;3.53;;
57071;SDS011;42956;51.366;11.298;2023-04-12T00:45:28;6.88;;;3.38;;
57071;SDS011;42956;51.366;11.298;2023-04-12T00:47:56;6.47;;;3.22;;
57071;SDS011;42956;51.366;11.298;2023-04-12T00:50:24;6.35;;;3.50;;
57071;SDS011;42956;51.366;11.298;2023-04-12T00:52:53;6.15;;;3.38;;
57071;SDS011;42956;51.366;11.298;2023-04-12T00:55:22;5.00;;;3.10;;
57071;SDS011;42956;51.366;11.298;2023-04-12T00:57:50;5.07;;;3.40;;
57071;SDS011;42956;51.366;11.298;2023-04-12T01:00:18;8.20;;;4.03;;
57071;SDS011;42956;51.366;11.298;2023-04-12T01:02:46;5.38;;;3.47;;
57071;SDS011;42956;51.366;11.298;2023-04-12T01:05:17;3.80;;;3.33;;
57071;SDS011;42956;51.366;11.298;2023-04-12T01:07:50;6.75;;;3.80;;
57071;SDS011;42956;51.366;11.298;2023-04-12T01:10:23;6.28;;;3.30;;
57071;SDS011;42956;51.366;11.298;2023-04-12T01:12:55;4.65;;;3.28;;
57071;SDS011;42956;51.366;11.298;2023-04-12T01:15:25;5.07;;;3.55;;
57071;SDS011;42956;51.366;11.298;2023-04-12T01:17:55;5.30;;;3.10;;
57071;SDS011;42956;51.366;11.298;2023-04-12T01:20:25;6.80;;;3.15;;
57071;SDS011;42956;51.366;11.298;2023-04-12T01:23:05;7.95;;;3.45;;
57071;SDS011;42956;51.366;11.298;2023-04-12T01:25:39;5.45;;;3.17;;
57071;SDS011;42956;51.366;11.298;2023-04-12T01:28:14;4.13;;;2.65;;
57071;SDS011;42956;51.366;11.298;2023-04-12T01:30:42;8.90;;;3.70;;
57071;SDS011;42956;51.366;11.298;2023-04-12T01:33:11;5.78;;;3.03;;
57071;SDS011;42956;51.366;11.298;2023-04-12T01:35:40;5.18;;;3.67;;
57071;SDS011;42956;51.366;11.298;2023-04-12T01:38:09;5.53;;;3.83;;
57071;SDS011;42956;51.366;11.298;2023-04-12T01:40:37;3.47;;;2.63;;
57071;SDS011;42956;51.366;11.298;2023-04-12T01:43:06;5.82;;;2.90;;
57071;SDS011;42956;51.366;11.298;2023-04-12T01:45:36;5.32;;;3.55;;
57071;SDS011;42956;51.366;11.298;2023-04-12T01:48:05;7.82;;;3.30;;
57071;SDS011;42956;51.366;11.298;2023-04-12T01:50:36;5.78;;;2.97;;
57071;SDS011;42956;51.366;11.298;2023-04-12T01:53:07;4.55;;;3.25;;
57071;SDS011;42956;51.366;11.298;2023-04-12T01:55:36;13.30;;;5.00;;
57071;SDS011;42956;51.366;11.298;2023-04-12T01:58:05;12.57;;;5.80;;
57071;SDS011;42956;51.366;11.298;2023-04-12T02:00:35;14.80;;;4.57;;
57071;SDS011;42956;51.366;11.298;2023-04-12T02:03:03;14.05;;;5.57;;
57071;SDS011;42956;51.366;11.298;2023-04-12T02:05:32;19.85;;;7.20;;
57071;SDS011;42956;51.366;11.298;2023-04-12T02:08:01;20.00;;;7.63;;
57071;SDS011;42956;51.366;11.298;2023-04-12T02:10:29;20.52;;;7.45;;
57071;SDS011;42956;51.366;11.298;2023-04-12T02:12:57;13.75;;;7.45;;
57071;SDS011;42956;51.366;11.298;2023-04-12T02:15:25;16.23;;;5.95;;
57071;SDS011;42956;51.366;11.298;2023-04-12T02:17:55;15.70;;;5.32;;
57071;SDS011;42956;51.366;11.298;2023-04-12T02:20:25;8.23;;;3.80;;
57071;SDS011;42956;51.366;11.298;2023-04-12T02:22:53;9.32;;;3.85;;
57071;SDS011;42956;51.366;11.298;2023-04-12T02:25:21;4.88;;;3.50;;
57071;SDS011;42956;51.366;11.298;2023-04-12T02:27:49;5.57;;;3.67;;
57071;SDS011;42956;51.366;11.298;2023-04-12T02:30:17;8.60;;;3.15;;
57071;SDS011;42956;51.366;11.298;2023-04-12T02:32:45;7.32;;;4.15;;
57071;SDS011;42956;51.366;11.298;2023-04-12T02:35:15;5.43;;;4.05;;
57071;SDS011;42956;51.366;11.298;2023-04-12T02:37:45;7.60;;;4.07;;
57071;SDS011;42956;51.366;11.298;2023-04-12T02:40:14;8.43;;;4.47;;
57071;SDS011;42956;51.366;11.298;2023-04-12T02:42:42;8.55;;;4.40;;
57071;SDS011;42956;51.366;11.298;2023-04-12T02:45:10;12.75;;;6.00;;
57071;SDS011;42956;51.366;11.298;2023-04-12T02:47:38;10.55;;;4.95;;
57071;SDS011;42956;51.366;11.298;2023-04-12T02:50:07;7.60;;;5.05;;
57071;SDS011;42956;51.366;11.298;2023-04-12T02:52:36;12.60;;;6.55;;
57071;SDS011;42956;51.366;11.298;2023-04-12T02:55:04;16.02;;;6.82;;
57071;SDS011;42956;51.366;11.298;2023-04-12T02:57:32;16.13;;;6.90;;
57071;SDS011;42956;51.366;11.298;2023-04-12T03:00:00;23.65;;;9.27;;
57071;SDS011;42956;51.366;11.298;2023-04-12T03:02:33;31.45;;;9.00;;
57071;SDS011;42956;51.366;11.298;2023-04-12T03:05:02;24.60;;;8.13;;
57071;SDS011;42956;51.366;11.298;2023-04-12T03:07:30;21.83;;;8.65;;
57071;SDS011;42956;51.366;11.298;2023-04-12T03:09:59;21.23;;;7.53;;
57071;SDS011;42956;51.366;11.298;2023-04-12T03:12:28;14.20;;;5.95;;
57071;SDS011;42956;51.366;11.298;2023-04-12T03:14:56;14.65;;;5.65;;
57071;SDS011;42956;51.366;11.298;2023-04-12T03:17:24;12.75;;;6.40;;
57071;SDS011;42956;51.366;11.298;2023-04-12T03:19:52;13.68;;;5.32;;
57071;SDS011;42956;51.366;11.298;2023-04-12T03:22:20;8.63;;;4.75;;
57071;SDS011;42956;51.366;11.298;2023-04-12T03:24:49;10.18;;;5.40;;
57071;SDS011;42956;51.366;11.298;2023-04-12T03:27:18;8.07;;;5.03;;
57071;SDS011;42956;51.366;11.298;2023-04-12T03:29:46;11.45;;;4.97;;
57071;SDS011;42956;51.366;11.298;2023-04-12T03:32:14;6.03;;;4.40;;
57071;SDS011;42956;51.366;11.298;2023-04-12T03:34:42;10.90;;;5.30;;
57071;SDS011;42956;51.366;11.298;2023-04-12T03:37:11;11.25;;;5.70;;
57071;SDS011;42956;51.366;11.298;2023-04-12T03:39:39;9.98;;;5.03;;
57071;SDS011;42956;51.366;11.298;2023-04-12T03:42:07;15.10;;;7.00;;
57071;SDS011;42956;51.366;11.298;2023-04-12T03:44:52;18.63;;;7.78;;
57071;SDS011;42956;51.366;11.298;2023-04-12T03:47:20;20.05;;;7.78;;
57071;SDS011;42956;51.366;11.298;2023-04-12T03:49:48;19.00;;;7.80;;
57071;SDS011;42956;51.366;11.298;2023-04-12T03:52:36;8.65;;;5.20;;
57071;SDS011;42956;51.366;11.298;2023-04-12T03:55:04;10.50;;;4.88;;
57071;SDS011;42956;51.366;11.298;2023-04-12T03:57:33;13.27;;;4.90;;
57071;SDS011;42956;51.366;11.298;2023-04-12T04:00:03;13.18;;;5.22;;
57071;SDS011;42956;51.366;11.298;2023-04-12T04:02:34;9.27;;;4.27;;
57071;SDS011;42956;51.366;11.298;2023-04-12T04:05:02;5.70;;;4.20;;
57071;SDS011;42956;51.366;11.298;2023-04-12T04:07:30;9.18;;;4.30;;
57071;SDS011;42956;51.366;11.298;2023-04-12T04:09:58;7.93;;;4.50;;
57071;SDS011;42956;51.366;11.298;2023-04-12T04:12:26;6.07;;;3.88;;
57071;SDS011;42956;51.366;11.298;2023-04-12T04:14:54;6.78;;;4.38;;
57071;SDS011;42956;51.366;11.298;2023-04-12T04:17:23;8.82;;;4.47;;
57071;SDS011;42956;51.366;11.298;2023-04-12T04:19:51;8.55;;;4.38;;
57071;SDS011;42956;51.366;11.298;2023-04-12T04:22:19;8.15;;;4.68;;
57071;SDS011;42956;51.366;11.298;2023-04-12T04:24:48;8.88;;;3.63;;
57071;SDS011;42956;51.366;11.298;2023-04-12T04:27:17;10.15;;;4.38;;
57071;SDS011;42956;51.366;11.298;2023-04-12T04:29:46;5.88;;;4.20;;
57071;SDS011;42956;51.366;11.298;2023-04-12T04:32:14;8.50;;;4.55;;
57071;SDS011;42956;51.366;11.298;2023-04-12T04:34:43;6.20;;;5.28;;
57071;SDS011;42956;51.366;11.298;2023-04-12T04:37:11;9.45;;;5.75;;
57071;SDS011;42956;51.366;11.298;2023-04-12T04:39:39;10.35;;;6.18;;
57071;SDS011;42956;51.366;11.298;2023-04-12T04:42:07;10.82;;;4.97;;
57071;SDS011;42956;51.366;11.298;2023-04-12T04:44:35;10.85;;;5.57;;
57071;SDS011;42956;51.366;11.298;2023-04-12T04:47:03;9.18;;;4.65;;
57071;SDS011;42956;51.366;11.298;2023-04-12T04:49:32;9.50;;;5.20;;
57071;SDS011;42956;51.366;11.298;2023-04-12T04:52:01;11.13;;;5.70;;
57071;SDS011;42956;51.366;11.298;2023-04-12T04:54:29;8.40;;;4.82;;
57071;SDS011;42956;51.366;11.298;2023-04-12T04:56:58;14.63;;;7.00;;
57071;SDS011;42956;51.366;11.298;2023-04-12T04:59:27;13.68;;;7.43;;
57071;SDS011;42956;51.366;11.298;2023-04-12T05:01:54;12.30;;;7.05;;
57071;SDS011;42956;51.366;11.298;2023-04-12T05:04:22;14.57;;;8.73;;
57071;SDS011;42956;51.366;11.298;2023-04-12T05:06:50;19.77;;;10.63;;
57071;SDS011;42956;51.366;11.298;2023-04-12T05:09:20;12.73;;;7.95;;
57071;SDS011;42956;51.366;11.298;2023-04-12T05:11:48;16.55;;;8.02;;
57071;SDS011;42956;51.366;11.298;2023-04-12T05:14:16;14.00;;;7.18;;
57071;SDS011;42956;51.366;11.298;2023-04-12T05:16:45;13.10;;;7.57;;
57071;SDS011;42956;51.366;11.298;2023-04-12T05:19:14;12.43;;;7.03;;
57071;SDS011;42956;51.366;11.298;2023-04-12T05:21:43;14.70;;;8.27;;
57071;SDS011;42956;51.366;11.298;2023-04-12T05:24:11;22.73;;;13.40;;
57071;SDS011;42956;51.366;11.298;2023-04-12T05:26:40;25.17;;;15.07;;
57071;SDS011;42956;51.366;11.298;2023-04-12T05:29:08;25.00;;;13.30;;
57071;SDS011;42956;51.366;11.298;2023-04-12T05:31:36;16.27;;;11.18;;
57071;SDS011;42956;51.366;11.298;2023-04-12T05:34:04;17.75;;;10.57;;
57071;SDS011;42956;51.366;11.298;2023-04-12T05:36:32;14.73;;;9.52;;
57071;SDS011;42956;51.366;11.298;2023-04-12T05:39:00;13.05;;;7.97;;
57071;SDS011;42956;51.366;11.298;2023-04-12T05:41:27;11.93;;;7.82;;
57071;SDS011;42956;51.366;11.298;2023-04-12T05:43:58;14.48;;;8.60;;
57071;SDS011;42956;51.366;11.298;2023-04-12T05:46:26;13.02;;;7.80;;
57071;SDS011;42956;51.366;11.298;2023-04-12T05:48:54;11.73;;;6.60;;
57071;SDS011;42956;51.366;11.298;2023-04-12T05:51:23;8.88;;;5.57;;
57071;SDS011;42956;51.366;11.298;2023-04-12T05:54:06;11.93;;;6.25;;
57071;SDS011;42956;51.366;11.298;2023-04-12T05:56:34;8.15;;;5.40;;
57071;SDS011;42956;51.366;11.298;2023-04-12T05:59:04;7.18;;;5.43;;
57071;SDS011;42956;51.366;11.298;2023-04-12T06:01:33;8.85;;;5.10;;
57071;SDS011;42956;51.366;11.298;2023-04-12T06:04:00;9.88;;;4.80;;
57071;SDS011;42956;51.366;11.298;2023-04-12T06:06:29;7.40;;;4.30;;
57071;SDS011;42956;51.366;11.298;2023-04-12T06:08:57;6.45;;;3.72;;
57071;SDS011;42956;51.366;11.298;2023-04-12T06:11:26;6.95;;;4.18;;
57071;SDS011;42956;51.366;11.298;2023-04-12T06:13:54;11.93;;;4.97;;
57071;SDS011;42956;51.366;11.298;2023-04-12T06:16:23;4.65;;;3.40;;
57071;SDS011;42956;51.366;11.298;2023-04-12T06:18:51;6.65;;;3.88;;
57071;SDS011;42956;51.366;11.298;2023-04-12T06:21:19;5.95;;;3.85;;
57071;SDS011;42956;51.366;11.298;2023-04-12T06:23:47;10.52;;;4.55;;
57071;SDS011;42956;51.366;11.298;2023-04-12T06:26:15;6.20;;;3.55;;
57071;SDS011;42956;51.366;11.298;2023-04-12T06:28:44;4.53;;;3.85;;
57071;SDS011;42956;51.366;11.298;2023-04-12T06:31:12;10.70;;;3.88;;
57071;SDS011;42956;51.366;11.298;2023-04-12T06:33:41;8.55;;;3.38;;
57071;SDS011;42956;51.366;11.298;2023-04-12T06:36:09;7.03;;;2.97;;
57071;SDS011;42956;51.366;11.298;2023-04-12T06:38:38;6.95;;;3.00;;
57071;SDS011;42956;51.366;11.298;2023-04-12T06:41:06;6.25;;;2.95;;
57071;SDS011;42956;51.366;11.298;2023-04-12T06:43:34;8.02;;;3.95;;
57071;SDS011;42956;51.366;11.298;2023-04-12T06:46:02;7.15;;;4.05;;
57071;SDS011;42956;51.366;11.298;2023-04-12T06:48:30;8.23;;;3.05;;
57071;SDS011;42956;51.366;11.298;2023-04-12T06:50:59;8.20;;;3.22;;
57071;SDS011;42956;51.366;11.298;2023-04-12T06:53:27;9.95;;;3.63;;
57071;SDS011;42956;51.366;11.298;2023-04-12T06:55:56;9.57;;;3.38;;
57071;SDS011;42956;51.366;11.298;2023-04-12T06:58:24;6.65;;;3.88;;
57071;SDS011;42956;51.366;11.298;2023-04-12T07:00:52;6.13;;;3.03;;
57071;SDS011;42956;51.366;11.298;2023-04-12T07:03:20;7.57;;;3.72;;
57071;SDS011;42956;51.366;11.298;2023-04-12T07:05:50;7.57;;;3.70;;
57071;SDS011;42956;51.366;11.298;2023-04-12T07:08:23;8.68;;;4.07;;
57071;SDS011;42956;51.366;11.298;2023-04-12T07:10:52;8.20;;;3.83;;
57071;SDS011;42956;51.366;11.298;2023-04-12T07:13:20;8.50;;;3.65;;
57071;SDS011;42956;51.366;11.298;2023-04-12T07:15:49;7.03;;;4.28;;
57071;SDS011;42956;51.366;11.298;2023-04-12T07:18:17;6.38;;;3.13;;
57071;SDS011;42956;51.366;11.298;2023-04-12T07:20:45;8.07;;;2.95;;
57071;SDS011;42956;51.366;11.298;2023-04-12T07:23:13;7.30;;;2.78;;
57071;SDS011;42956;51.366;11.298;2023-04-12T07:25:43;14.65;;;3.85;;
57071;SDS011;42956;51.366;11.298;2023-04-12T07:28:11;6.40;;;2.40;;
57071;SDS011;42956;51.366;11.298;2023-04-12T07:30:39;5.88;;;2.50;;
57071;SDS011;42956;51.366;11.298;2023-04-12T07:33:07;5.28;;;2.55;;
57071;SDS011;42956;51.366;11.298;2023-04-12T07:39:14;3.05;;;1.67;;
57071;SDS011;42956;51.366;11.298;2023-04-12T07:41:48;8.10;;;2.42;;
57071;SDS011;42956;51.366;11.298;2023-04-12T07:44:16;5.70;;;2.40;;
57071;SDS011;42956;51.366;11.298;2023-04-12T07:46:44;4.18;;;2.28;;
57071;SDS011;42956;51.366;11.298;2023-04-12T07:49:12;5.28;;;2.00;;
57071;SDS011;42956;51.366;11.298;2023-04-12T07:51:40;5.35;;;2.70;;
57071;SDS011;42956;51.366;11.298;2023-04-12T07:54:09;12.30;;;2.63;;
57071;SDS011;42956;51.366;11.298;2023-04-12T07:56:38;5.15;;;1.98;;
57071;SDS011;42956;51.366;11.298;2023-04-12T07:59:07;5.57;;;1.92;;
57071;SDS011;42956;51.366;11.298;2023-04-12T08:01:35;5.60;;;2.00;;
57071;SDS011;42956;51.366;11.298;2023-04-12T08:04:04;4.43;;;1.70;;
57071;SDS011;42956;51.366;11.298;2023-04-12T08:06:32;10.18;;;2.90;;
57071;SDS011;42956;51.366;11.298;2023-04-12T08:09:01;8.63;;;1.92;;
57071;SDS011;42956;51.366;11.298;2023-04-12T08:11:29;6.28;;;2.15;;
57071;SDS011;42956;51.366;11.298;2023-04-12T08:13:57;4.88;;;1.63;;
57071;SDS011;42956;51.366;11.298;2023-04-12T08:16:29;5.40;;;2.22;;
57071;SDS011;42956;51.366;11.298;2023-04-12T08:18:58;6.97;;;1.83;;
57071;SDS011;42956;51.366;11.298;2023-04-12T08:21:25;7.53;;;2.10;;
57071;SDS011;42956;51.366;11.298;2023-04-12T08:23:55;5.72;;;2.05;;
57071;SDS011;42956;51.366;11.298;2023-04-12T08:26:24;3.13;;;1.70;;
57071;SDS011;42956;51.366;11.298;2023-04-12T08:28:53;4.50;;;2.25;;
57071;SDS011;42956;51.366;11.298;2023-04-12T08:31:23;4.53;;;1.60;;
57071;SDS011;42956;51.366;11.298;2023-04-12T08:33:52;5.15;;;2.83;;
57071;SDS011;42956;51.366;11.298;2023-04-12T08:36:20;7.88;;;2.25;;
57071;SDS011;42956;51.366;11.298;2023-04-12T08:38:48;3.92;;;1.75;;
57071;SDS011;42956;51.366;11.298;2023-04-12T08:41:18;7.70;;;1.85;;
57071;SDS011;42956;51.366;11.298;2023-04-12T08:43:46;3.30;;;2.15;;
57071;SDS011;42956;51.366;11.298;2023-04-12T08:46:14;9.90;;;2.25;;
57071;SDS011;42956;51.366;11.298;2023-04-12T08:48:43;9.07;;;2.40;;
57071;SDS011;42956;51.366;11.298;2023-04-12T08:51:14;3.55;;;1.67;;
57071;SDS011;42956;51.366;11.298;2023-04-12T08:53:43;7.30;;;2.20;;
57071;SDS011;42956;51.366;11.298;2023-04-12T08:56:11;7.55;;;2.30;;
57071;SDS011;42956;51.366;11.298;2023-04-12T08:58:44;4.53;;;1.67;;
57071;SDS011;42956;51.366;11.298;2023-04-12T09:03:45;4.38;;;1.45;;
57071;SDS011;42956;51.366;11.298;2023-04-12T09:06:15;5.43;;;1.88;;
57071;SDS011;42956;51.366;11.298;2023-04-12T09:08:52;2.83;;;1.50;;
57071;SDS011;42956;51.366;11.298;2023-04-12T09:11:21;5.80;;;1.63;;
57071;SDS011;42956;51.366;11.298;2023-04-12T09:13:52;5.35;;;1.50;;
57071;SDS011;42956;51.366;11.298;2023-04-12T09:16:33;6.20;;;2.13;;
57071;SDS011;42956;51.366;11.298;2023-04-12T09:19:02;3.00;;;1.35;;
57071;SDS011;42956;51.366;11.298;2023-04-12T09:21:32;3.25;;;1.67;;
57071;SDS011;42956;51.366;11.298;2023-04-12T09:24:01;2.85;;;1.58;;
57071;SDS011;42956;51.366;11.298;2023-04-12T09:26:30;4.78;;;1.75;;
57071;SDS011;42956;51.366;11.298;2023-04-12T09:28:58;6.47;;;1.90;;
57071;SDS011;42956;51.366;11.298;2023-04-12T09:31:26;5.15;;;1.90;;
57071;SDS011;42956;51.366;11.298;2023-04-12T09:33:59;5.97;;;1.65;;
57071;SDS011;42956;51.366;11.298;2023-04-12T09:36:37;5.75;;;2.05;;
57071;SDS011;42956;51.366;11.298;2023-04-12T09:39:06;6.80;;;2.35;;
57071;SDS011;42956;51.366;11.298;2023-04-12T09:41:34;7.47;;;2.17;;
57071;SDS011;42956;51.366;11.298;2023-04-12T09:44:02;5.60;;;1.45;;
57071;SDS011;42956;51.366;11.298;2023-04-12T09:46:30;6.10;;;1.70;;
57071;SDS011;42956;51.366;11.298;2023-04-12T09:48:59;4.45;;;2.58;;
57071;SDS011;42956;51.366;11.298;2023-04-12T09:51:30;3.67;;;1.83;;
57071;SDS011;42956;51.366;11.298;2023-04-12T09:54:01;6.22;;;1.92;;
57071;SDS011;42956;51.366;11.298;2023-04-12T09:56:29;2.97;;;1.42;;
57071;SDS011;42956;51.366;11.298;2023-04-12T09:59:01;4.18;;;1.63;;
57071;SDS011;42956;51.366;11.298;2023-04-12T10:01:32;3.28;;;1.67;;
57071;SDS011;42956;51.366;11.298;2023-04-12T10:04:01;5.55;;;1.55;;
57071;SDS011;42956;51.366;11.298;2023-04-12T10:06:31;3.95;;;1.60;;
57071;SDS011;42956;51.366;11.298;2023-04-12T10:09:01;3.00;;;1.70;;
57071;SDS011;42956;51.366;11.298;2023-04-12T10:11:32;3.95;;;1.58;;
57071;SDS011;42956;51.366;11.298;2023-04-12T10:14:00;5.32;;;1.73;;
57071;SDS011;42956;51.366;11.298;2023-04-12T10:16:29;7.05;;;2.20;;
57071;SDS011;42956;51.366;11.298;2023-04-12T10:18:57;5.47;;;2.45;;
57071;SDS011;42956;51.366;11.298;2023-04-12T10:21:28;5.05;;;1.67;;
57071;SDS011;42956;51.366;11.298;2023-04-12T10:23:56;2.35;;;1.50;;
57071;SDS011;42956;51.366;11.298;2023-04-12T10:26:25;2.08;;;1.70;;
57071;SDS011;42956;51.366;11.298;2023-04-12T10:34:05;2.42;;;1.40;;
57071;SDS011;42956;51.366;11.298;2023-04-12T10:44:47;2.15;;;1.02;;
57071;SDS011;42956;51.366;11.298;2023-04-12T10:47:15;3.85;;;1.40;;
57071;SDS011;42956;51.366;11.298;2023-04-12T10:52:26;2.53;;;1.23;;
57071;SDS011;42956;51.366;11.298;2023-04-12T10:54:54;2.78;;;1.20;;
57071;SDS011;42956;51.366;11.298;2023-04-12T11:00:20;1.80;;;1.30;;
57071;SDS011;42956;51.366;11.298;2023-04-12T11:03:07;1.80;;;1.55;;
57071;SDS011;42956;51.366;11.298;2023-04-12T11:05:57;2.13;;;1.10;;
57071;SDS011;42956;51.366;11.298;2023-04-12T11:08:38;5.70;;;1.42;;
57071;SDS011;42956;51.366;11.298;2023-04-12T11:11:16;3.42;;;1.40;;
57071;SDS011;42956;51.366;11.298;2023-04-12T11:13:44;2.92;;;1.65;;
57071;SDS011;42956;51.366;11.298;2023-04-12T11:16:14;3.42;;;1.70;;
57071;SDS011;42956;51.366;11.298;2023-04-12T11:18:44;7.00;;;2.22;;
57071;SDS011;42956;51.366;11.298;2023-04-12T11:21:12;4.75;;;1.60;;
57071;SDS011;42956;51.366;11.298;2023-04-12T11:23:41;4.95;;;1.88;;
57071;SDS011;42956;51.366;11.298;2023-04-12T11:26:10;4.57;;;1.98;;
57071;SDS011;42956;51.366;11.298;2023-04-12T11:28:37;4.85;;;1.58;;
57071;SDS011;42956;51.366;11.298;2023-04-12T11:31:05;4.10;;;2.15;;
57071;SDS011;42956;51.366;11.298;2023-04-12T11:33:35;2.22;;;1.27;;
57071;SDS011;42956;51.366;11.298;2023-04-12T11:36:04;3.00;;;1.40;;
57071;SDS011;42956;51.366;11.298;2023-04-12T11:38:33;1.75;;;1.20;;
57071;SDS011;42956;51.366;11.298;2023-04-12T11:41:01;2.97;;;1.52;;
57071;SDS011;42956;51.366;11.298;2023-04-12T11:43:30;4.55;;;1.42;;
57071;SDS011;42956;51.366;11.298;2023-04-12T11:45:58;2.97;;;1.65;;
57071;SDS011;42956;51.366;11.298;2023-04-12T11:48:27;5.50;;;2.13;;
57071;SDS011;42956;51.366;11.298;2023-04-12T11:50:56;3.20;;;1.35;;
57071;SDS011;42956;51.366;11.298;2023-04-12T11:53:37;6.25;;;1.23;;
57071;SDS011;42956;51.366;11.298;2023-04-12T11:56:06;2.92;;;1.30;;
57071;SDS011;42956;51.366;11.298;2023-04-12T11:58:36;2.28;;;1.67;;
57071;SDS011;42956;51.366;11.298;2023-04-12T12:01:04;4.10;;;1.67;;
57071;SDS011;42956;51.366;11.298;2023-04-12T12:03:32;6.00;;;1.80;;
57071;SDS011;42956;51.366;11.298;2023-04-12T12:06:02;5.35;;;2.10;;
57071;SDS011;42956;51.366;11.298;2023-04-12T12:08:31;5.68;;;1.88;;
57071;SDS011;42956;51.366;11.298;2023-04-12T12:11:00;4.95;;;2.28;;
57071;SDS011;42956;51.366;11.298;2023-04-12T12:13:44;5.05;;;1.80;;
57071;SDS011;42956;51.366;11.298;2023-04-12T12:16:12;2.58;;;2.03;;
57071;SDS011;42956;51.366;11.298;2023-04-12T12:18:41;2.92;;;1.52;;
57071;SDS011;42956;51.366;11.298;2023-04-12T12:21:11;1.73;;;1.45;;
57071;SDS011;42956;51.366;11.298;2023-04-12T12:23:41;4.85;;;1.13;;
57071;SDS011;42956;51.366;11.298;2023-04-12T12:26:09;3.17;;;1.60;;
57071;SDS011;42956;51.366;11.298;2023-04-12T12:28:47;2.45;;;1.17;;
57071;SDS011;42956;51.366;11.298;2023-04-12T12:31:17;3.08;;;1.73;;
57071;SDS011;42956;51.366;11.298;2023-04-12T12:33:45;2.70;;;1.65;;
57071;SDS011;42956;51.366;11.298;2023-04-12T12:36:17;8.80;;;1.75;;
57071;SDS011;42956;51.366;11.298;2023-04-12T12:38:46;4.72;;;1.60;;
57071;SDS011;42956;51.366;11.298;2023-04-12T12:41:17;10.20;;;1.60;;
57071;SDS011;42956;51.366;11.298;2023-04-12T12:43:46;1.73;;;1.55;;
57071;SDS011;42956;51.366;11.298;2023-04-12T12:46:14;2.15;;;1.45;;
57071;SDS011;42956;51.366;11.298;2023-04-12T12:48:43;3.47;;;1.30;;
57071;SDS011;42956;51.366;11.298;2023-04-12T12:51:12;1.77;;;1.60;;
57071;SDS011;42956;51.366;11.298;2023-04-12T12:53:41;2.67;;;1.40;;
57071;SDS011;42956;51.366;11.298;2023-04-12T12:56:09;4.85;;;1.58;;
57071;SDS011;42956;51.366;11.298;2023-04-12T12:58:37;1.75;;;1.45;;
57071;SDS011;42956;51.366;11.298;2023-04-12T13:01:06;3.65;;;1.70;;
57071;SDS011;42956;51.366;11.298;2023-04-12T13:03:34;3.97;;;1.50;;
57071;SDS011;42956;51.366;11.298;2023-04-12T13:06:03;5.10;;;1.77;;
57071;SDS011;42956;51.366;11.298;2023-04-12T13:08:30;2.92;;;1.77;;
57071;SDS011;42956;51.366;11.298;2023-04-12T13:11:02;2.47;;;1.40;;
57071;SDS011;42956;51.366;11.298;2023-04-12T13:13:30;3.85;;;1.80;;
57071;SDS011;42956;51.366;11.298;2023-04-12T13:15:57;3.10;;;1.63;;
57071;SDS011;42956;51.366;11.298;2023-04-12T13:18:26;4.50;;;1.48;;
57071;SDS011;42956;51.366;11.298;2023-04-12T13:20:54;3.22;;;1.63;;
57071;SDS011;42956;51.366;11.298;2023-04-12T13:23:22;1.90;;;1.15;;
57071;SDS011;42956;51.366;11.298;2023-04-12T13:25:49;1.95;;;1.27;;
57071;SDS011;42956;51.366;11.298;2023-04-12T13:28:20;2.75;;;1.75;;
57071;SDS011;42956;51.366;11.298;2023-04-12T13:30:48;4.28;;;1.73;;
57071;SDS011;42956;51.366;11.298;2023-04-12T13:33:16;3.05;;;1.70;;
57071;SDS011;42956;51.366;11.298;2023-04-12T13:35:47;3.05;;;1.90;;
57071;SDS011;42956;51.366;11.298;2023-04-12T13:38:15;3.10;;;1.50;;
57071;SDS011;42956;51.366;11.298;2023-04-12T13:40:43;2.58;;;1.52;;
57071;SDS011;42956;51.366;11.298;2023-04-12T13:43:11;1.33;;;1.23;;
57071;SDS011;42956;51.366;11.298;2023-04-12T13:45:40;1.83;;;1.65;;
57071;SDS011;42956;51.366;11.298;2023-04-12T13:48:08;4.93;;;1.60;;
57071;SDS011;42956;51.366;11.298;2023-04-12T13:50:36;1.63;;;1.25;;
57071;SDS011;42956;51.366;11.298;2023-04-12T13:53:04;2.90;;;1.48;;
57071;SDS011;42956;51.366;11.298;2023-04-12T13:55:32;3.03;;;1.48;;
57071;SDS011;42956;51.366;11.298;2023-04-12T13:58:00;4.05;;;1.70;;
57071;SDS011;42956;51.366;11.298;2023-04-12T14:00:29;2.58;;;1.80;;
57071;SDS011;42956;51.366;11.298;2023-04-12T14:02:59;3.63;;;1.55;;
57071;SDS011;42956;51.366;11.298;2023-04-12T14:05:28;3.88;;;1.60;;
57071;SDS011;42956;51.366;11.298;2023-04-12T14:07:56;3.55;;;1.90;;
57071;SDS011;42956;51.366;11.298;2023-04-12T14:10:24;1.63;;;1.50;;
57071;SDS011;42956;51.366;11.298;2023-04-12T14:12:51;2.15;;;1.85;;
57071;SDS011;42956;51.366;11.298;2023-04-12T14:15:19;4.43;;;1.70;;
57071;SDS011;42956;51.366;11.298;2023-04-12T14:17:47;2.40;;;1.50;;
57071;SDS011;42956;51.366;11.298;2023-04-12T14:20:17;3.95;;;1.35;;
57071;SDS011;42956;51.366;11.298;2023-04-12T14:22:45;2.90;;;1.30;;
57071;SDS011;42956;51.366;11.298;2023-04-12T14:25:13;1.65;;;1.42;;
57071;SDS011;42956;51.366;11.298;2023-04-12T14:27:41;2.50;;;1.77;;
57071;SDS011;42956;51.366;11.298;2023-04-12T14:30:09;1.95;;;1.77;;
57071;SDS011;42956;51.366;11.298;2023-04-12T14:32:37;2.90;;;1.40;;
57071;SDS011;42956;51.366;11.298;2023-04-12T14:35:05;3.22;;;1.70;;
57071;SDS011;42956;51.366;11.298;2023-04-12T14:37:34;2.97;;;1.77;;
57071;SDS011;42956;51.366;11.298;2023-04-12T14:40:02;2.90;;;1.80;;
57071;SDS011;42956;51.366;11.298;2023-04-12T14:42:33;3.10;;;1.63;;
57071;SDS011;42956;51.366;11.298;2023-04-12T14:45:02;5.15;;;1.65;;
57071;SDS011;42956;51.366;11.298;2023-04-12T14:47:30;2.28;;;1.60;;
57071;SDS011;42956;51.366;11.298;2023-04-12T14:49:59;2.22;;;1.23;;
57071;SDS011;42956;51.366;11.298;2023-04-12T14:52:27;5.43;;;1.75;;
57071;SDS011;42956;51.366;11.298;2023-04-12T14:54:56;1.92;;;1.20;;
57071;SDS011;42956;51.366;11.298;2023-04-12T14:57:23;2.88;;;1.60;;
57071;SDS011;42956;51.366;11.298;2023-04-12T14:59:51;2.60;;;1.60;;
57071;SDS011;42956;51.366;11.298;2023-04-12T15:02:19;1.45;;;1.35;;
57071;SDS011;42956;51.366;11.298;2023-04-12T15:04:50;1.85;;;1.30;;
57071;SDS011;42956;51.366;11.298;2023-04-12T15:07:18;2.28;;;1.35;;